createdAt,value
2023-01-19T00:00:23.925Z,15.00
2023-01-19T00:02:50.489Z,14.25
2023-01-19T00:05:18.312Z,14.40
2023-01-19T00:07:44.873Z,14.52
2023-01-19T00:10:11.395Z,13.80
2023-01-19T00:12:37.913Z,14.88
2023-01-19T00:15:04.964Z,14.68
2023-01-19T00:17:31.342Z,14.73
2023-01-19T00:19:57.826Z,15.00
2023-01-19T00:22:25.614Z,14.70
2023-01-19T00:24:51.997Z,14.60
2023-01-19T00:27:18.382Z,15.05
2023-01-19T00:29:44.751Z,15.43
2023-01-19T00:32:11.128Z,12.30
2023-01-19T00:34:37.523Z,14.88
2023-01-19T00:37:03.913Z,15.32
2023-01-19T00:39:31.700Z,15.95
2023-01-19T00:41:58.120Z,15.52
2023-01-19T00:44:24.672Z,14.80
2023-01-19T00:46:51.072Z,15.55
2023-01-19T00:49:17.525Z,15.65
2023-01-19T00:51:43.915Z,15.00
2023-01-19T00:54:10.437Z,15.73
2023-01-19T00:56:38.308Z,15.27
2023-01-19T00:59:04.750Z,14.25
2023-01-19T01:01:45.095Z,14.55
2023-01-19T01:04:13.187Z,14.63
2023-01-19T01:06:39.657Z,15.93
2023-01-19T01:09:06.154Z,14.05
2023-01-19T01:11:32.544Z,16.60
2023-01-19T01:14:00.343Z,15.95
2023-01-19T01:16:26.903Z,15.60
2023-01-19T01:18:53.319Z,16.38
2023-01-19T01:21:19.909Z,15.70
2023-01-19T01:23:46.318Z,16.83
2023-01-19T01:26:12.737Z,17.67
2023-01-19T01:28:39.133Z,16.27
2023-01-19T01:31:06.897Z,16.95
2023-01-19T01:33:40.520Z,17.50
2023-01-19T01:36:08.358Z,15.43
2023-01-19T01:38:34.757Z,15.85
2023-01-19T01:41:01.195Z,14.63
2023-01-19T01:43:41.255Z,16.13
2023-01-19T01:46:09.107Z,15.93
2023-01-19T01:48:36.223Z,16.20
2023-01-19T01:51:04.068Z,16.83
2023-01-19T01:53:31.860Z,16.55
2023-01-19T01:55:59.605Z,15.82
2023-01-19T01:58:26.521Z,15.90
2023-01-19T02:00:53.215Z,16.17
2023-01-19T02:03:22.493Z,16.13
2023-01-19T02:05:49.087Z,16.00
2023-01-19T02:08:17.239Z,15.52
2023-01-19T02:10:44.094Z,15.57
2023-01-19T02:13:10.548Z,15.90
2023-01-19T02:15:36.915Z,14.75
2023-01-19T02:18:03.687Z,15.93
2023-01-19T02:20:31.705Z,14.73
2023-01-19T02:23:00.850Z,14.80
2023-01-19T02:25:28.983Z,14.55
2023-01-19T02:27:55.454Z,14.40
2023-01-19T02:30:21.907Z,14.27
2023-01-19T02:32:48.807Z,15.48
2023-01-19T02:35:15.528Z,15.65
2023-01-19T02:37:43.032Z,14.73
2023-01-19T02:40:11.340Z,14.65
2023-01-19T02:42:41.797Z,14.60
2023-01-19T02:45:09.154Z,14.55
2023-01-19T02:47:38.970Z,14.32
2023-01-19T02:50:25.924Z,14.27
2023-01-19T02:52:55.512Z,14.95
2023-01-19T02:55:24.456Z,13.60
2023-01-19T02:57:57.603Z,14.23
2023-01-19T03:00:28.279Z,14.73
2023-01-19T03:03:00.244Z,14.63
2023-01-19T03:05:31.064Z,14.88
2023-01-19T03:08:00.638Z,15.15
2023-01-19T03:10:30.930Z,15.07
2023-01-19T03:13:00.602Z,14.15
2023-01-19T03:15:30.538Z,15.13
2023-01-19T03:17:58.061Z,15.30
2023-01-19T03:20:24.882Z,15.00
2023-01-19T03:22:53.978Z,15.43
2023-01-19T03:25:21.182Z,14.90
2023-01-19T03:27:48.457Z,15.27
2023-01-19T03:30:18.016Z,14.35
2023-01-19T03:32:48.177Z,15.57
2023-01-19T03:35:15.412Z,14.55
2023-01-19T03:37:44.079Z,13.93
2023-01-19T03:40:11.690Z,14.60
2023-01-19T03:42:38.810Z,14.35
2023-01-19T03:45:06.452Z,12.85
2023-01-19T03:47:34.851Z,15.63
2023-01-19T03:50:02.191Z,13.93
2023-01-19T03:52:29.112Z,14.38
2023-01-19T03:54:55.804Z,15.40
2023-01-19T03:57:22.218Z,15.18
2023-01-19T03:59:48.629Z,15.82
2023-01-19T04:02:15.153Z,16.15
2023-01-19T04:04:43.012Z,15.18
2023-01-19T04:07:10.105Z,15.57
2023-01-19T04:09:36.623Z,15.02
2023-01-19T04:12:02.977Z,15.45
2023-01-19T04:14:29.367Z,15.98
2023-01-19T04:16:55.747Z,14.93
2023-01-19T04:19:22.174Z,14.25
2023-01-19T04:21:49.950Z,14.82
2023-01-19T04:24:16.357Z,14.00
2023-01-19T04:26:42.829Z,16.17
2023-01-19T04:29:09.236Z,14.13
2023-01-19T04:31:35.713Z,14.10
2023-01-19T04:34:02.200Z,14.98
2023-01-19T04:36:28.625Z,15.50
2023-01-19T04:38:56.392Z,13.55
2023-01-19T04:41:22.731Z,13.85
2023-01-19T04:43:49.152Z,12.93
2023-01-19T04:46:15.571Z,12.32
2023-01-19T04:48:42.295Z,12.02
2023-01-19T04:51:08.715Z,13.13
2023-01-19T04:53:35.124Z,12.43
2023-01-19T04:56:02.854Z,12.50
2023-01-19T04:58:29.241Z,11.55
2023-01-19T05:00:55.619Z,12.18
2023-01-19T05:03:22.243Z,12.43
2023-01-19T05:05:48.703Z,13.15
2023-01-19T05:08:15.188Z,11.50
2023-01-19T05:10:41.610Z,10.77
2023-01-19T05:13:09.468Z,9.88
2023-01-19T05:15:35.850Z,11.10
2023-01-19T05:18:02.289Z,9.32
2023-01-19T05:20:28.649Z,8.65
2023-01-19T05:22:55.131Z,9.25
2023-01-19T05:25:21.551Z,9.40
2023-01-19T05:27:47.995Z,8.48
2023-01-19T05:30:16.230Z,8.45
2023-01-19T05:32:42.696Z,8.35
2023-01-19T05:35:09.653Z,8.57
2023-01-19T05:37:36.183Z,8.23
2023-01-19T05:40:02.742Z,8.25
2023-01-19T05:42:30.839Z,9.05
2023-01-19T05:44:58.410Z,9.52
2023-01-19T05:47:26.334Z,10.40
2023-01-19T05:49:55.380Z,9.93
2023-01-19T05:52:21.785Z,10.02
2023-01-19T05:54:48.170Z,11.15
2023-01-19T05:57:14.642Z,11.15
2023-01-19T05:59:41.046Z,10.93
2023-01-19T06:02:07.554Z,11.10
2023-01-19T06:04:35.473Z,12.77
2023-01-19T06:07:01.961Z,13.30
2023-01-19T06:09:28.436Z,12.75
2023-01-19T06:11:54.880Z,13.07
2023-01-19T06:14:21.381Z,12.75
2023-01-19T06:16:47.886Z,12.80
2023-01-19T06:19:14.282Z,12.52
2023-01-19T06:21:42.050Z,12.52
2023-01-19T06:24:09.135Z,12.35
2023-01-19T06:26:35.537Z,11.18
2023-01-19T06:29:02.175Z,11.02
2023-01-19T06:31:28.847Z,9.75
2023-01-19T06:33:55.473Z,10.73
2023-01-19T06:36:21.830Z,10.90
2023-01-19T06:38:49.639Z,11.55
2023-01-19T06:41:15.996Z,10.63
2023-01-19T06:43:42.438Z,12.75
2023-01-19T06:46:09.208Z,12.07
2023-01-19T06:48:35.647Z,12.18
2023-01-19T06:51:01.989Z,12.25
2023-01-19T06:53:28.509Z,11.50
2023-01-19T06:55:59.622Z,10.38
2023-01-19T06:58:27.009Z,11.15
2023-01-19T07:00:53.613Z,11.23
2023-01-19T07:03:21.400Z,11.30
2023-01-19T07:05:50.686Z,10.15
2023-01-19T07:08:17.137Z,9.63
2023-01-19T07:11:26.922Z,10.63
2023-01-19T07:13:31.524Z,10.18
2023-01-19T07:15:58.443Z,11.50
2023-01-19T07:18:25.310Z,10.80
2023-01-19T07:20:51.720Z,11.52
2023-01-19T07:23:18.126Z,11.55
2023-01-19T07:25:44.926Z,11.82
2023-01-19T07:28:11.279Z,12.35
2023-01-19T07:30:39.028Z,11.63
2023-01-19T07:33:05.451Z,11.52
2023-01-19T07:35:31.963Z,13.07
2023-01-19T07:37:58.683Z,13.43
2023-01-19T07:40:25.042Z,12.98
2023-01-19T07:42:51.492Z,13.93
2023-01-19T07:45:18.268Z,14.90
2023-01-19T07:47:46.883Z,14.68
2023-01-19T07:50:13.476Z,13.38
2023-01-19T07:52:40.020Z,15.55
2023-01-19T07:55:07.134Z,15.48
2023-01-19T07:57:33.613Z,15.77
2023-01-19T07:59:59.962Z,15.63
2023-01-19T08:02:26.504Z,15.73
2023-01-19T08:04:54.320Z,16.20
2023-01-19T08:07:20.789Z,17.67
2023-01-19T08:09:47.194Z,18.10
2023-01-19T08:12:13.633Z,17.50
2023-01-19T08:14:40.042Z,16.90
2023-01-19T08:17:06.453Z,16.90
2023-01-19T08:19:32.864Z,16.88
2023-01-19T08:22:00.660Z,18.00
2023-01-19T08:24:27.147Z,18.15
2023-01-19T08:26:58.019Z,19.63
2023-01-19T08:29:24.520Z,19.45
2023-01-19T08:31:50.971Z,20.00
2023-01-19T08:34:17.565Z,20.20
2023-01-19T08:36:43.947Z,20.35
2023-01-19T08:39:11.824Z,20.92
2023-01-19T08:41:38.310Z,22.92
2023-01-19T08:44:05.018Z,18.35
2023-01-19T08:46:31.466Z,22.90
2023-01-19T08:48:57.995Z,24.52
2023-01-19T08:51:24.384Z,23.45
2023-01-19T08:53:50.729Z,23.95
2023-01-19T08:56:20.647Z,23.95
2023-01-19T08:58:53.692Z,25.30
2023-01-19T09:01:29.892Z,25.20
2023-01-19T09:03:56.414Z,24.17
2023-01-19T09:06:22.884Z,26.75
2023-01-19T09:08:49.274Z,25.23
2023-01-19T09:11:16.068Z,24.90
2023-01-19T09:13:44.181Z,26.35
2023-01-19T09:16:10.722Z,26.35
2023-01-19T09:18:37.218Z,25.63
2023-01-19T09:21:03.780Z,26.40
2023-01-19T09:23:30.197Z,26.98
2023-01-19T09:25:58.009Z,26.00
2023-01-19T09:28:24.360Z,25.88
2023-01-19T09:30:52.212Z,24.92
2023-01-19T09:33:19.473Z,24.85
2023-01-19T09:35:46.570Z,26.67
2023-01-19T09:38:13.467Z,25.63
2023-01-19T09:40:42.332Z,26.38
2023-01-19T09:43:13.276Z,26.35
2023-01-19T09:45:43.533Z,27.58
2023-01-19T09:48:18.049Z,26.77
2023-01-19T09:50:44.538Z,27.23
2023-01-19T09:53:14.229Z,26.35
2023-01-19T09:55:41.235Z,26.55
2023-01-19T09:58:10.055Z,25.33
2023-01-19T10:00:36.479Z,26.80
2023-01-19T10:03:11.726Z,25.35
2023-01-19T10:05:42.240Z,25.83
2023-01-19T10:08:12.467Z,27.42
2023-01-19T10:10:40.573Z,25.30
2023-01-19T10:13:14.132Z,25.50
2023-01-19T10:15:45.011Z,24.80
2023-01-19T10:18:17.181Z,24.45
2023-01-19T10:20:48.427Z,25.15
2023-01-19T10:23:21.232Z,23.27
2023-01-19T10:25:47.767Z,23.50
2023-01-19T10:28:14.714Z,25.35
2023-01-19T10:30:42.555Z,24.70
2023-01-19T10:33:11.141Z,23.25
2023-01-19T10:35:37.540Z,22.52
2023-01-19T10:38:05.303Z,25.92
2023-01-19T10:40:33.617Z,24.05
2023-01-19T10:43:00.549Z,25.27
2023-01-19T10:45:28.437Z,24.85
2023-01-19T10:47:57.603Z,24.80
2023-01-19T10:50:25.406Z,25.33
2023-01-19T10:52:52.764Z,24.10
2023-01-19T10:55:27.840Z,24.05
2023-01-19T10:57:54.682Z,24.13
2023-01-19T11:00:29.647Z,24.85
2023-01-19T11:03:23.035Z,25.02
2023-01-19T11:05:49.635Z,25.30
2023-01-19T11:08:23.279Z,25.63
2023-01-19T11:10:56.249Z,24.58
2023-01-19T11:13:22.693Z,24.65
2023-01-19T11:15:52.365Z,24.52
2023-01-19T11:18:23.667Z,25.73
2023-01-19T11:20:51.193Z,24.23
2023-01-19T11:23:24.615Z,24.08
2023-01-19T11:25:51.581Z,22.55
2023-01-19T11:28:21.496Z,23.70
2023-01-19T11:30:55.079Z,22.25
2023-01-19T11:33:25.301Z,22.50
2023-01-19T11:36:01.231Z,19.48
2023-01-19T11:38:27.693Z,19.42
2023-01-19T11:40:54.884Z,19.13
2023-01-19T11:43:24.741Z,18.55
2023-01-19T11:45:51.511Z,18.33
2023-01-19T11:48:22.086Z,17.55
2023-01-19T11:50:49.199Z,17.55
2023-01-19T11:53:18.717Z,18.58
2023-01-19T11:55:48.745Z,16.60
2023-01-19T11:58:16.113Z,16.88
2023-01-19T12:00:45.717Z,16.90
2023-01-19T12:03:15.053Z,17.25
2023-01-19T12:05:44.080Z,15.02
2023-01-19T12:08:13.893Z,17.25
2023-01-19T12:10:43.370Z,17.52
2023-01-19T12:13:15.951Z,16.60
2023-01-19T12:15:44.825Z,17.92
2023-01-19T12:18:15.410Z,17.73
2023-01-19T12:20:43.098Z,16.80
2023-01-19T12:23:15.809Z,19.23
2023-01-19T12:28:09.689Z,17.38
2023-01-19T12:30:36.391Z,20.50
2023-01-19T12:33:31.411Z,20.20
2023-01-19T12:35:58.716Z,20.40
2023-01-19T12:38:46.214Z,20.40
2023-01-19T12:41:19.757Z,20.70
2023-01-19T12:43:46.476Z,20.90
2023-01-19T12:46:19.897Z,20.52
2023-01-19T12:48:47.811Z,21.60
2023-01-19T12:51:22.223Z,19.35
2023-01-19T12:53:51.225Z,18.40
2023-01-19T12:56:17.673Z,18.05
2023-01-19T12:58:47.551Z,17.92
2023-01-19T13:01:14.762Z,18.88
2023-01-19T13:03:42.553Z,18.77
2023-01-19T13:06:10.357Z,16.35
2023-01-19T13:08:56.093Z,16.77
2023-01-19T13:11:24.896Z,15.82
2023-01-19T13:14:25.884Z,15.85
2023-01-19T13:17:10.969Z,16.42
2023-01-19T13:19:43.758Z,15.20
2023-01-19T13:24:51.348Z,15.88
2023-01-19T13:27:19.232Z,15.43
2023-01-19T13:29:45.846Z,15.98
2023-01-19T13:32:13.819Z,15.60
2023-01-19T13:34:40.973Z,14.88
2023-01-19T13:37:12.851Z,14.77
2023-01-19T13:39:40.717Z,15.77
2023-01-19T13:42:12.831Z,15.90
2023-01-19T13:44:42.135Z,16.13
2023-01-19T13:47:12.299Z,15.52
2023-01-19T13:49:40.159Z,15.93
2023-01-19T13:52:07.728Z,17.92
2023-01-19T13:54:34.220Z,18.05
2023-01-19T13:57:00.585Z,18.33
2023-01-19T13:59:27.110Z,17.35
2023-01-19T14:02:04.015Z,17.15
2023-01-19T14:04:31.433Z,18.13
2023-01-19T14:07:00.777Z,17.70
2023-01-19T14:09:27.261Z,18.17
2023-01-19T14:12:12.419Z,17.70
2023-01-19T14:14:39.119Z,19.15
2023-01-19T14:17:15.138Z,17.48
2023-01-19T14:19:48.342Z,18.05
2023-01-19T14:22:14.779Z,17.88
2023-01-19T14:24:41.218Z,17.45
2023-01-19T14:27:09.485Z,16.73
2023-01-19T14:29:36.517Z,17.30
2023-01-19T14:32:11.696Z,16.40
2023-01-19T14:34:39.055Z,16.35
2023-01-19T14:37:13.120Z,17.13
2023-01-19T14:39:43.467Z,17.63
2023-01-19T14:42:16.056Z,17.60
2023-01-19T14:44:45.758Z,17.88
2023-01-19T14:47:21.349Z,17.77
2023-01-19T14:49:48.028Z,18.17
2023-01-19T14:52:20.232Z,17.35
2023-01-19T14:54:47.226Z,17.65
2023-01-19T14:57:13.916Z,17.00
2023-01-19T14:59:40.701Z,17.00
2023-01-19T15:02:07.502Z,17.67
2023-01-19T15:04:35.400Z,16.35
2023-01-19T15:07:01.844Z,18.65
2023-01-19T15:09:28.305Z,18.02
2023-01-19T15:11:54.673Z,18.42
2023-01-19T15:14:21.636Z,17.60
2023-01-19T15:16:48.531Z,18.38
2023-01-19T15:19:15.844Z,18.42
2023-01-19T15:21:43.893Z,18.42
2023-01-19T15:24:10.741Z,17.15
2023-01-19T15:26:37.856Z,18.33
2023-01-19T15:29:10.887Z,17.80
2023-01-19T15:31:37.296Z,16.83
2023-01-19T15:34:03.724Z,16.70
2023-01-19T15:36:30.132Z,17.08
2023-01-19T15:38:57.816Z,17.23
2023-01-19T15:41:25.987Z,18.25
2023-01-19T15:43:52.358Z,17.23
2023-01-19T15:46:19.258Z,17.25
2023-01-19T15:48:45.784Z,16.40
2023-01-19T15:51:12.447Z,17.25
2023-01-19T15:53:39.764Z,17.90
2023-01-19T15:56:11.645Z,17.67
2023-01-19T15:58:38.092Z,19.00
2023-01-19T16:01:04.647Z,17.38
2023-01-19T16:03:31.161Z,17.13
2023-01-19T16:05:59.562Z,16.98
2023-01-19T16:08:26.002Z,17.23
2023-01-19T16:10:52.434Z,17.52
2023-01-19T16:13:20.380Z,16.77
2023-01-19T16:15:46.876Z,16.92
2023-01-19T16:18:13.403Z,18.45
2023-01-19T16:20:39.835Z,17.38
2023-01-19T16:23:21.394Z,17.13
2023-01-19T16:25:55.034Z,16.65
2023-01-19T16:28:22.822Z,17.25
2023-01-19T16:30:49.267Z,18.23
2023-01-19T16:33:15.883Z,16.58
2023-01-19T16:35:42.274Z,16.63
2023-01-19T16:38:08.705Z,17.45
2023-01-19T16:40:35.213Z,16.55
2023-01-19T16:43:01.646Z,17.65
2023-01-19T16:45:29.401Z,17.65
2023-01-19T16:47:55.927Z,16.15
2023-01-19T16:50:22.297Z,17.73
2023-01-19T16:52:48.710Z,17.67
2023-01-19T16:55:15.120Z,17.42
2023-01-19T16:57:41.581Z,18.10
2023-01-19T17:00:09.075Z,17.02
2023-01-19T17:02:37.306Z,17.25
2023-01-19T17:05:03.943Z,17.45
2023-01-19T17:07:30.767Z,17.15
2023-01-19T17:09:57.176Z,17.30
2023-01-19T17:12:23.577Z,18.55
2023-01-19T17:14:49.976Z,18.23
2023-01-19T17:17:16.492Z,17.98
2023-01-19T17:19:44.254Z,17.70
2023-01-19T17:22:10.690Z,17.13
2023-01-19T17:24:37.228Z,15.88
2023-01-19T17:27:03.747Z,17.55
2023-01-19T17:29:30.181Z,18.67
2023-01-19T17:31:56.758Z,18.73
2023-01-19T17:34:23.273Z,18.85
2023-01-19T17:36:51.331Z,19.33
2023-01-19T17:39:17.714Z,17.50
2023-01-19T17:41:44.133Z,19.20
2023-01-19T17:44:10.796Z,19.27
2023-01-19T17:46:38.085Z,18.35
2023-01-19T17:49:05.477Z,17.73
2023-01-19T17:51:32.067Z,18.35
2023-01-19T17:53:59.925Z,18.77
2023-01-19T17:56:27.365Z,18.40
2023-01-19T17:58:53.951Z,19.73
2023-01-19T18:01:21.528Z,18.92
2023-01-19T18:03:48.323Z,18.83
2023-01-19T18:06:15.266Z,19.42
2023-01-19T18:08:42.674Z,19.58
2023-01-19T18:11:10.947Z,19.10
2023-01-19T18:13:39.290Z,18.38
2023-01-19T18:16:07.125Z,19.05
2023-01-19T18:18:33.625Z,18.75
2023-01-19T18:21:00.207Z,18.42
2023-01-19T18:23:26.611Z,18.73
2023-01-19T18:25:57.869Z,20.02
2023-01-19T18:28:25.722Z,18.45
2023-01-19T18:30:52.241Z,18.00
2023-01-19T18:33:18.701Z,18.77
2023-01-19T18:35:45.092Z,17.90
2023-01-19T18:38:11.711Z,18.45
2023-01-19T18:40:38.198Z,18.20
2023-01-19T18:43:04.597Z,18.73
2023-01-19T18:45:32.395Z,17.27
2023-01-19T18:48:00.340Z,18.42
2023-01-19T18:50:26.695Z,17.15
2023-01-19T18:52:53.126Z,17.67
2023-01-19T18:55:19.482Z,18.60
2023-01-19T18:57:46.187Z,17.92
2023-01-19T19:00:13.972Z,17.95
2023-01-19T19:05:16.454Z,17.30
2023-01-19T19:07:42.843Z,18.20
2023-01-19T19:10:09.909Z,18.55
2023-01-19T19:12:36.378Z,17.60
2023-01-19T19:15:03.146Z,18.40
2023-01-19T19:17:29.541Z,18.83
2023-01-19T19:19:55.962Z,17.10
2023-01-19T19:22:25.521Z,17.98
2023-01-19T19:24:52.271Z,16.90
2023-01-19T19:27:18.831Z,17.80
2023-01-19T19:29:45.829Z,18.20
2023-01-19T19:32:12.332Z,17.95
2023-01-19T19:34:38.965Z,16.88
2023-01-19T19:37:05.348Z,16.77
2023-01-19T19:39:33.203Z,17.60
2023-01-19T19:41:59.565Z,17.27
2023-01-19T19:44:26.088Z,17.38
2023-01-19T19:46:52.521Z,16.73
2023-01-19T19:49:18.971Z,18.13
2023-01-19T19:51:45.431Z,17.10
2023-01-19T19:54:11.871Z,17.75
2023-01-19T19:56:39.676Z,17.05
2023-01-19T19:59:06.062Z,18.23
2023-01-19T20:01:33.731Z,17.90
2023-01-19T20:04:04.591Z,18.38
2023-01-19T20:06:31.009Z,19.35
2023-01-19T20:08:57.421Z,20.25
2023-01-19T20:11:25.472Z,20.60
2023-01-19T20:13:53.473Z,18.83
2023-01-19T20:16:21.012Z,19.70
2023-01-19T20:18:48.664Z,19.40
2023-01-19T20:21:16.175Z,21.08
2023-01-19T20:23:43.124Z,20.98
2023-01-19T20:26:10.804Z,21.90
2023-01-19T20:28:37.513Z,21.13
2023-01-19T20:31:13.731Z,20.15
2023-01-19T20:33:40.709Z,21.20
2023-01-19T20:36:07.577Z,20.80
2023-01-19T20:38:34.172Z,20.70
2023-01-19T20:41:00.608Z,22.10
2023-01-19T20:43:27.047Z,20.65
2023-01-19T20:45:53.526Z,21.02
2023-01-19T20:48:21.356Z,19.67
2023-01-19T20:50:48.119Z,20.85
2023-01-19T20:53:14.552Z,20.45
2023-01-19T20:55:40.971Z,21.25
2023-01-19T20:58:07.346Z,21.85
2023-01-19T21:00:33.803Z,23.02
2023-01-19T21:03:00.251Z,21.48
2023-01-19T21:05:28.086Z,22.55
2023-01-19T21:07:54.552Z,21.20
2023-01-19T21:10:21.021Z,21.27
2023-01-19T21:12:47.485Z,22.58
2023-01-19T21:15:14.320Z,23.23
2023-01-19T21:17:40.917Z,23.45
2023-01-19T21:20:08.030Z,23.50
2023-01-19T21:22:35.813Z,22.90
2023-01-19T21:25:02.269Z,23.17
2023-01-19T21:27:28.756Z,23.10
2023-01-19T21:29:55.191Z,24.08
2023-01-19T21:32:21.559Z,22.88
2023-01-19T21:34:48.016Z,23.92
2023-01-19T21:37:14.432Z,23.08
2023-01-19T21:39:42.200Z,23.02
2023-01-19T21:42:08.577Z,24.45
2023-01-19T21:44:35.139Z,23.42
2023-01-19T21:47:01.558Z,22.95
2023-01-19T21:49:27.999Z,23.60
2023-01-19T21:51:54.423Z,23.77
2023-01-19T21:54:20.869Z,23.73
2023-01-19T21:56:48.667Z,24.23
2023-01-19T21:59:15.279Z,22.92
2023-01-19T22:01:42.112Z,23.02
2023-01-19T22:04:08.677Z,24.98
2023-01-19T22:06:35.119Z,24.58
2023-01-19T22:09:01.764Z,24.05
2023-01-19T22:11:28.631Z,23.65
2023-01-19T22:13:56.417Z,24.45
2023-01-19T22:16:23.205Z,24.95
2023-01-19T22:18:50.578Z,26.02
2023-01-19T22:21:18.152Z,23.92
2023-01-19T22:23:47.728Z,23.30
2023-01-19T22:26:14.162Z,24.38
2023-01-19T22:28:40.677Z,24.35
2023-01-19T22:31:09.430Z,23.30
2023-01-19T22:33:36.157Z,24.73
2023-01-19T22:36:09.679Z,24.95
2023-01-19T22:38:36.116Z,24.02
2023-01-19T22:41:10.639Z,24.90
2023-01-19T22:43:37.048Z,26.48
2023-01-19T22:46:04.226Z,26.25
2023-01-19T22:48:32.158Z,26.98
2023-01-19T22:50:58.500Z,26.52
2023-01-19T22:53:24.916Z,27.48
2023-01-19T22:55:51.379Z,27.40
2023-01-19T22:58:17.838Z,27.27
2023-01-19T23:00:44.200Z,28.05
2023-01-19T23:03:10.663Z,28.20
2023-01-19T23:05:38.448Z,28.30
2023-01-19T23:08:05.281Z,26.10
2023-01-19T23:10:31.682Z,27.90
2023-01-19T23:12:58.112Z,28.27
2023-01-19T23:15:24.553Z,28.73
2023-01-19T23:17:51.166Z,28.48
2023-01-19T23:20:17.736Z,28.70
2023-01-19T23:22:45.592Z,28.95
2023-01-19T23:25:12.387Z,29.10
2023-01-19T23:27:39.071Z,29.17
2023-01-19T23:30:06.031Z,28.77
2023-01-19T23:32:32.701Z,27.95
2023-01-19T23:34:59.095Z,28.48
2023-01-19T23:37:25.504Z,28.15
2023-01-19T23:39:53.221Z,28.50
2023-01-19T23:42:19.616Z,27.52
2023-01-19T23:44:46.001Z,28.40
2023-01-19T23:47:12.494Z,28.30
2023-01-19T23:49:38.863Z,28.08
2023-01-19T23:52:05.257Z,27.80
2023-01-19T23:54:31.609Z,25.73
2023-01-19T23:56:59.463Z,28.48
2023-01-19T23:59:25.823Z,28.35
